PASV/SVW METAR and TAF weather

Enter ICAO airport designator
Station Type Date Time Source
PASV METAR 2018/12/15 22:36 UTC NOAA

PASV 152236Z AUTO 05005KT 2SM -SN OVC023 M22/M24 A2932 RMK AO2 SLP005


Station Type Date Time Source
PASV Decoded METAR 2018/12/15 22:36 UTC NOAA

Sparrevohn Airways Facilities Sector, AK, United States (PASV) 61-06N 155-34W
Dec 15, 2018 - 05:36 PM EST / 2018.12.15 2236 UTC
Wind: from the NE (050 degrees) at 6 MPH (5 KT):0
Visibility: 2 mile(s):0
Sky conditions: overcast
Weather: light snow
Temperature: -7 F (-22 C)
Windchill: -20 F (-29 C):2
Dew Point: -11 F (-24 C)
Relative Humidity: 83%
Pressure (altimeter): 29.32 in. Hg (992 hPa)
ob: PASV 152236Z AUTO 05005KT 2SM -SN OVC023 M22/M24 A2932 RMK AO2 SLP005
cycle: 22

Station Type Date Time Source
PASV TAF 2012/01/12 14:57 UTC NOAA

TAF
AMD PASV 1214/1320 33010G15KT 4800 -SN BLSN SCT003 SCT110 QNH2984INS
BECMG 1221/1222 VRB06KT 9999 NSW FEW010 SCT110 QNH3000INS LIMITED METWATCH TM25/1300Z TM37/1315Z
AMD 121453


Example: see airport list